sensor_id;sensor_type;location;lat;lon;timestamp;P1;durP1;ratioP1;P2;durP2;ratioP2
30149;SDS011;16962;48.646;9.026;2022-11-09T00:01:56;7.35;;;3.15;;
30149;SDS011;16962;48.646;9.026;2022-11-09T00:04:44;4.70;;;2.97;;
30149;SDS011;16962;48.646;9.026;2022-11-09T00:07:31;5.45;;;3.42;;
30149;SDS011;16962;48.646;9.026;2022-11-09T00:10:18;6.93;;;3.20;;
30149;SDS011;16962;48.646;9.026;2022-11-09T00:13:05;4.55;;;3.05;;
30149;SDS011;16962;48.646;9.026;2022-11-09T00:15:55;4.65;;;3.05;;
30149;SDS011;16962;48.646;9.026;2022-11-09T00:18:45;4.65;;;2.92;;
30149;SDS011;16962;48.646;9.026;2022-11-09T00:21:35;5.03;;;3.17;;
30149;SDS011;16962;48.646;9.026;2022-11-09T00:24:25;6.45;;;2.85;;
30149;SDS011;16962;48.646;9.026;2022-11-09T00:27:14;7.00;;;2.95;;
30149;SDS011;16962;48.646;9.026;2022-11-09T00:30:03;5.15;;;3.28;;
30149;SDS011;16962;48.646;9.026;2022-11-09T00:32:51;6.07;;;3.45;;
30149;SDS011;16962;48.646;9.026;2022-11-09T00:35:38;4.53;;;2.95;;
30149;SDS011;16962;48.646;9.026;2022-11-09T00:38:25;7.75;;;3.10;;
30149;SDS011;16962;48.646;9.026;2022-11-09T00:41:12;5.32;;;2.85;;
30149;SDS011;16962;48.646;9.026;2022-11-09T00:43:59;5.10;;;2.90;;
30149;SDS011;16962;48.646;9.026;2022-11-09T00:46:49;5.75;;;2.50;;
30149;SDS011;16962;48.646;9.026;2022-11-09T00:49:36;11.55;;;3.88;;
30149;SDS011;16962;48.646;9.026;2022-11-09T00:52:25;4.93;;;3.28;;
30149;SDS011;16962;48.646;9.026;2022-11-09T00:55:13;4.55;;;2.78;;
30149;SDS011;16962;48.646;9.026;2022-11-09T00:58:01;4.68;;;2.80;;
30149;SDS011;16962;48.646;9.026;2022-11-09T01:00:48;4.72;;;2.55;;
30149;SDS011;16962;48.646;9.026;2022-11-09T01:03:40;4.93;;;2.58;;
30149;SDS011;16962;48.646;9.026;2022-11-09T01:06:28;5.38;;;2.92;;
30149;SDS011;16962;48.646;9.026;2022-11-09T01:09:19;5.85;;;2.70;;
30149;SDS011;16962;48.646;9.026;2022-11-09T01:12:06;5.53;;;2.88;;
30149;SDS011;16962;48.646;9.026;2022-11-09T01:14:54;4.15;;;2.80;;
30149;SDS011;16962;48.646;9.026;2022-11-09T01:17:43;4.57;;;2.63;;
30149;SDS011;16962;48.646;9.026;2022-11-09T01:20:30;4.72;;;2.70;;
30149;SDS011;16962;48.646;9.026;2022-11-09T01:23:18;4.07;;;2.95;;
30149;SDS011;16962;48.646;9.026;2022-11-09T01:26:08;4.05;;;2.70;;
30149;SDS011;16962;48.646;9.026;2022-11-09T01:28:57;4.82;;;2.63;;
30149;SDS011;16962;48.646;9.026;2022-11-09T01:31:47;5.82;;;2.70;;
30149;SDS011;16962;48.646;9.026;2022-11-09T01:34:34;3.90;;;2.65;;
30149;SDS011;16962;48.646;9.026;2022-11-09T01:37:21;6.57;;;2.67;;
30149;SDS011;16962;48.646;9.026;2022-11-09T01:40:08;8.30;;;2.80;;
30149;SDS011;16962;48.646;9.026;2022-11-09T01:42:57;5.40;;;2.72;;
30149;SDS011;16962;48.646;9.026;2022-11-09T01:46:03;5.47;;;2.58;;
30149;SDS011;16962;48.646;9.026;2022-11-09T01:49:04;6.63;;;2.90;;
30149;SDS011;16962;48.646;9.026;2022-11-09T01:52:01;5.10;;;2.40;;
30149;SDS011;16962;48.646;9.026;2022-11-09T01:55:00;4.88;;;2.60;;
30149;SDS011;16962;48.646;9.026;2022-11-09T01:58:00;3.92;;;2.50;;
30149;SDS011;16962;48.646;9.026;2022-11-09T02:00:53;4.13;;;2.58;;
30149;SDS011;16962;48.646;9.026;2022-11-09T02:04:05;3.28;;;2.20;;
30149;SDS011;16962;48.646;9.026;2022-11-09T02:06:53;5.60;;;2.80;;
30149;SDS011;16962;48.646;9.026;2022-11-09T02:13:09;4.18;;;2.70;;
30149;SDS011;16962;48.646;9.026;2022-11-09T02:16:01;4.63;;;2.67;;
30149;SDS011;16962;48.646;9.026;2022-11-09T02:18:55;3.25;;;2.42;;
30149;SDS011;16962;48.646;9.026;2022-11-09T02:21:44;6.28;;;2.83;;
30149;SDS011;16962;48.646;9.026;2022-11-09T02:24:31;4.45;;;2.63;;
30149;SDS011;16962;48.646;9.026;2022-11-09T02:27:19;6.28;;;3.10;;
30149;SDS011;16962;48.646;9.026;2022-11-09T02:30:14;3.53;;;2.67;;
30149;SDS011;16962;48.646;9.026;2022-11-09T02:33:01;4.88;;;2.60;;
30149;SDS011;16962;48.646;9.026;2022-11-09T02:35:53;3.80;;;2.30;;
30149;SDS011;16962;48.646;9.026;2022-11-09T02:38:44;6.03;;;3.10;;
30149;SDS011;16962;48.646;9.026;2022-11-09T02:41:31;4.40;;;2.63;;
30149;SDS011;16962;48.646;9.026;2022-11-09T02:47:16;5.88;;;2.95;;
30149;SDS011;16962;48.646;9.026;2022-11-09T02:50:03;5.43;;;2.88;;
30149;SDS011;16962;48.646;9.026;2022-11-09T02:52:51;6.65;;;2.97;;
30149;SDS011;16962;48.646;9.026;2022-11-09T02:55:43;5.30;;;3.15;;
30149;SDS011;16962;48.646;9.026;2022-11-09T02:58:30;8.50;;;3.42;;
30149;SDS011;16962;48.646;9.026;2022-11-09T03:01:17;6.05;;;3.50;;
30149;SDS011;16962;48.646;9.026;2022-11-09T03:04:04;6.43;;;3.00;;
30149;SDS011;16962;48.646;9.026;2022-11-09T03:06:51;5.45;;;3.63;;
30149;SDS011;16962;48.646;9.026;2022-11-09T03:09:38;4.53;;;3.47;;
30149;SDS011;16962;48.646;9.026;2022-11-09T03:12:28;7.13;;;3.58;;
30149;SDS011;16962;48.646;9.026;2022-11-09T03:15:15;9.57;;;3.83;;
30149;SDS011;16962;48.646;9.026;2022-11-09T03:18:03;5.65;;;3.95;;
30149;SDS011;16962;48.646;9.026;2022-11-09T03:20:51;5.88;;;3.80;;
30149;SDS011;16962;48.646;9.026;2022-11-09T03:23:38;8.15;;;3.83;;
30149;SDS011;16962;48.646;9.026;2022-11-09T03:26:25;8.30;;;4.05;;
30149;SDS011;16962;48.646;9.026;2022-11-09T03:29:14;7.55;;;3.83;;
30149;SDS011;16962;48.646;9.026;2022-11-09T03:32:01;7.57;;;4.70;;
30149;SDS011;16962;48.646;9.026;2022-11-09T03:34:48;7.38;;;4.40;;
30149;SDS011;16962;48.646;9.026;2022-11-09T03:37:37;8.23;;;4.78;;
30149;SDS011;16962;48.646;9.026;2022-11-09T03:40:24;9.77;;;5.57;;
30149;SDS011;16962;48.646;9.026;2022-11-09T03:43:11;8.95;;;5.43;;
30149;SDS011;16962;48.646;9.026;2022-11-09T03:45:58;8.13;;;5.55;;
30149;SDS011;16962;48.646;9.026;2022-11-09T03:48:45;10.68;;;5.80;;
30149;SDS011;16962;48.646;9.026;2022-11-09T03:51:32;8.52;;;5.40;;
30149;SDS011;16962;48.646;9.026;2022-11-09T03:54:19;11.23;;;5.97;;
30149;SDS011;16962;48.646;9.026;2022-11-09T03:57:08;10.80;;;6.43;;
30149;SDS011;16962;48.646;9.026;2022-11-09T03:59:58;10.25;;;5.78;;
30149;SDS011;16962;48.646;9.026;2022-11-09T04:02:45;8.50;;;6.20;;
30149;SDS011;16962;48.646;9.026;2022-11-09T04:05:36;9.93;;;6.00;;
30149;SDS011;16962;48.646;9.026;2022-11-09T04:08:23;11.32;;;6.75;;
30149;SDS011;16962;48.646;9.026;2022-11-09T04:11:10;13.70;;;5.97;;
30149;SDS011;16962;48.646;9.026;2022-11-09T04:13:58;8.23;;;6.38;;
30149;SDS011;16962;48.646;9.026;2022-11-09T04:16:45;9.70;;;7.03;;
30149;SDS011;16962;48.646;9.026;2022-11-09T04:19:32;13.63;;;6.70;;
30149;SDS011;16962;48.646;9.026;2022-11-09T04:22:19;13.68;;;8.18;;
30149;SDS011;16962;48.646;9.026;2022-11-09T04:25:06;11.48;;;6.88;;
30149;SDS011;16962;48.646;9.026;2022-11-09T04:27:54;18.38;;;8.15;;
30149;SDS011;16962;48.646;9.026;2022-11-09T04:30:42;10.00;;;6.93;;
30149;SDS011;16962;48.646;9.026;2022-11-09T04:33:29;11.57;;;7.95;;
30149;SDS011;16962;48.646;9.026;2022-11-09T04:36:21;13.32;;;8.60;;
30149;SDS011;16962;48.646;9.026;2022-11-09T04:39:08;15.02;;;8.43;;
30149;SDS011;16962;48.646;9.026;2022-11-09T04:41:55;13.73;;;8.00;;
30149;SDS011;16962;48.646;9.026;2022-11-09T04:44:42;14.48;;;8.85;;
30149;SDS011;16962;48.646;9.026;2022-11-09T04:47:29;12.18;;;8.70;;
30149;SDS011;16962;48.646;9.026;2022-11-09T04:50:17;16.80;;;11.25;;
30149;SDS011;16962;48.646;9.026;2022-11-09T04:53:11;12.18;;;8.85;;
30149;SDS011;16962;48.646;9.026;2022-11-09T04:56:01;15.93;;;10.02;;
30149;SDS011;16962;48.646;9.026;2022-11-09T04:58:49;13.55;;;9.68;;
30149;SDS011;16962;48.646;9.026;2022-11-09T05:01:36;16.30;;;9.57;;
30149;SDS011;16962;48.646;9.026;2022-11-09T05:04:23;17.73;;;9.50;;
30149;SDS011;16962;48.646;9.026;2022-11-09T05:07:13;17.60;;;9.90;;
30149;SDS011;16962;48.646;9.026;2022-11-09T05:10:00;19.95;;;9.93;;
30149;SDS011;16962;48.646;9.026;2022-11-09T05:12:47;14.75;;;9.80;;
30149;SDS011;16962;48.646;9.026;2022-11-09T05:15:34;13.48;;;9.30;;
30149;SDS011;16962;48.646;9.026;2022-11-09T05:18:22;16.98;;;10.10;;
30149;SDS011;16962;48.646;9.026;2022-11-09T05:21:09;13.82;;;8.57;;
30149;SDS011;16962;48.646;9.026;2022-11-09T05:23:56;13.18;;;8.68;;
30149;SDS011;16962;48.646;9.026;2022-11-09T05:26:46;11.13;;;8.48;;
30149;SDS011;16962;48.646;9.026;2022-11-09T05:29:33;15.00;;;8.90;;
30149;SDS011;16962;48.646;9.026;2022-11-09T05:32:24;16.10;;;8.63;;
30149;SDS011;16962;48.646;9.026;2022-11-09T05:35:11;16.10;;;8.50;;
30149;SDS011;16962;48.646;9.026;2022-11-09T05:37:59;10.98;;;8.40;;
30149;SDS011;16962;48.646;9.026;2022-11-09T05:40:49;16.35;;;8.70;;
30149;SDS011;16962;48.646;9.026;2022-11-09T05:43:40;19.90;;;9.90;;
30149;SDS011;16962;48.646;9.026;2022-11-09T05:46:29;14.93;;;9.88;;
30149;SDS011;16962;48.646;9.026;2022-11-09T05:49:19;16.10;;;9.65;;
30149;SDS011;16962;48.646;9.026;2022-11-09T05:52:06;16.15;;;10.07;;
30149;SDS011;16962;48.646;9.026;2022-11-09T05:54:58;13.90;;;10.57;;
30149;SDS011;16962;48.646;9.026;2022-11-09T05:57:46;14.82;;;10.32;;
30149;SDS011;16962;48.646;9.026;2022-11-09T06:00:35;15.60;;;10.23;;
30149;SDS011;16962;48.646;9.026;2022-11-09T06:03:23;19.30;;;11.18;;
30149;SDS011;16962;48.646;9.026;2022-11-09T06:06:11;16.45;;;11.40;;
30149;SDS011;16962;48.646;9.026;2022-11-09T06:08:59;20.27;;;12.93;;
30149;SDS011;16962;48.646;9.026;2022-11-09T06:11:49;20.27;;;12.88;;
30149;SDS011;16962;48.646;9.026;2022-11-09T06:14:36;20.85;;;13.15;;
30149;SDS011;16962;48.646;9.026;2022-11-09T06:17:23;22.73;;;13.57;;
30149;SDS011;16962;48.646;9.026;2022-11-09T06:20:13;19.52;;;12.85;;
30149;SDS011;16962;48.646;9.026;2022-11-09T06:23:16;18.02;;;13.27;;
30149;SDS011;16962;48.646;9.026;2022-11-09T06:26:05;19.38;;;12.68;;
30149;SDS011;16962;48.646;9.026;2022-11-09T06:28:55;19.75;;;12.70;;
30149;SDS011;16962;48.646;9.026;2022-11-09T06:31:47;25.90;;;14.50;;
30149;SDS011;16962;48.646;9.026;2022-11-09T06:34:34;21.40;;;12.90;;
30149;SDS011;16962;48.646;9.026;2022-11-09T06:37:21;20.35;;;13.70;;
30149;SDS011;16962;48.646;9.026;2022-11-09T06:40:09;23.25;;;13.35;;
30149;SDS011;16962;48.646;9.026;2022-11-09T06:42:58;23.42;;;12.63;;
30149;SDS011;16962;48.646;9.026;2022-11-09T06:45:46;18.55;;;11.93;;
30149;SDS011;16962;48.646;9.026;2022-11-09T06:48:33;15.43;;;11.07;;
30149;SDS011;16962;48.646;9.026;2022-11-09T06:51:22;18.38;;;9.80;;
30149;SDS011;16962;48.646;9.026;2022-11-09T06:54:12;22.63;;;12.30;;
30149;SDS011;16962;48.646;9.026;2022-11-09T06:57:01;16.08;;;10.23;;
30149;SDS011;16962;48.646;9.026;2022-11-09T06:59:51;15.57;;;10.30;;
30149;SDS011;16962;48.646;9.026;2022-11-09T07:02:38;23.13;;;11.60;;
30149;SDS011;16962;48.646;9.026;2022-11-09T07:05:25;15.60;;;9.93;;
30149;SDS011;16962;48.646;9.026;2022-11-09T07:08:17;15.35;;;10.68;;
30149;SDS011;16962;48.646;9.026;2022-11-09T07:11:12;13.55;;;9.55;;
30149;SDS011;16962;48.646;9.026;2022-11-09T07:14:02;14.10;;;10.13;;
30149;SDS011;16962;48.646;9.026;2022-11-09T07:16:49;16.52;;;10.07;;
30149;SDS011;16962;48.646;9.026;2022-11-09T07:19:37;13.27;;;9.60;;
30149;SDS011;16962;48.646;9.026;2022-11-09T07:22:26;14.10;;;10.00;;
30149;SDS011;16962;48.646;9.026;2022-11-09T07:25:13;14.77;;;9.30;;
30149;SDS011;16962;48.646;9.026;2022-11-09T07:28:06;16.92;;;10.20;;
30149;SDS011;16962;48.646;9.026;2022-11-09T07:30:57;14.75;;;10.13;;
30149;SDS011;16962;48.646;9.026;2022-11-09T07:33:44;14.30;;;9.23;;
30149;SDS011;16962;48.646;9.026;2022-11-09T07:36:32;14.68;;;9.15;;
30149;SDS011;16962;48.646;9.026;2022-11-09T07:39:21;12.68;;;8.75;;
30149;SDS011;16962;48.646;9.026;2022-11-09T07:42:08;15.32;;;8.95;;
30149;SDS011;16962;48.646;9.026;2022-11-09T07:44:55;15.35;;;8.98;;
30149;SDS011;16962;48.646;9.026;2022-11-09T07:47:43;14.45;;;8.00;;
30149;SDS011;16962;48.646;9.026;2022-11-09T07:50:30;13.40;;;7.28;;
30149;SDS011;16962;48.646;9.026;2022-11-09T07:53:18;9.70;;;6.22;;
30149;SDS011;16962;48.646;9.026;2022-11-09T07:56:07;8.27;;;6.43;;
30149;SDS011;16962;48.646;9.026;2022-11-09T07:58:54;8.80;;;5.60;;
30149;SDS011;16962;48.646;9.026;2022-11-09T08:01:41;7.85;;;5.20;;
30149;SDS011;16962;48.646;9.026;2022-11-09T08:04:31;8.68;;;5.68;;
30149;SDS011;16962;48.646;9.026;2022-11-09T08:07:21;9.75;;;6.18;;
30149;SDS011;16962;48.646;9.026;2022-11-09T08:10:11;8.82;;;5.63;;
30149;SDS011;16962;48.646;9.026;2022-11-09T08:13:00;10.68;;;6.70;;
30149;SDS011;16962;48.646;9.026;2022-11-09T08:15:53;10.27;;;5.80;;
30149;SDS011;16962;48.646;9.026;2022-11-09T08:18:41;8.13;;;5.93;;
30149;SDS011;16962;48.646;9.026;2022-11-09T08:21:30;10.13;;;5.93;;
30149;SDS011;16962;48.646;9.026;2022-11-09T08:24:17;7.03;;;4.82;;
30149;SDS011;16962;48.646;9.026;2022-11-09T08:27:05;9.50;;;4.75;;
30149;SDS011;16962;48.646;9.026;2022-11-09T08:29:52;6.13;;;4.40;;
30149;SDS011;16962;48.646;9.026;2022-11-09T08:32:40;4.97;;;3.80;;
30149;SDS011;16962;48.646;9.026;2022-11-09T08:35:28;7.95;;;4.75;;
30149;SDS011;16962;48.646;9.026;2022-11-09T08:38:16;4.90;;;3.35;;
30149;SDS011;16962;48.646;9.026;2022-11-09T08:41:07;5.15;;;3.22;;
30149;SDS011;16962;48.646;9.026;2022-11-09T08:43:59;5.07;;;2.97;;
30149;SDS011;16962;48.646;9.026;2022-11-09T08:46:46;4.55;;;2.90;;
30149;SDS011;16962;48.646;9.026;2022-11-09T08:49:33;4.28;;;2.63;;
30149;SDS011;16962;48.646;9.026;2022-11-09T08:52:21;6.40;;;3.08;;
30149;SDS011;16962;48.646;9.026;2022-11-09T08:55:08;3.55;;;2.58;;
30149;SDS011;16962;48.646;9.026;2022-11-09T08:57:58;7.00;;;2.75;;
30149;SDS011;16962;48.646;9.026;2022-11-09T09:00:50;5.57;;;2.20;;
30149;SDS011;16962;48.646;9.026;2022-11-09T09:03:40;4.85;;;1.80;;
30149;SDS011;16962;48.646;9.026;2022-11-09T09:06:30;2.45;;;2.20;;
30149;SDS011;16962;48.646;9.026;2022-11-09T09:09:17;4.20;;;2.70;;
30149;SDS011;16962;48.646;9.026;2022-11-09T09:12:08;2.50;;;1.90;;
30149;SDS011;16962;48.646;9.026;2022-11-09T09:14:55;3.38;;;2.38;;
30149;SDS011;16962;48.646;9.026;2022-11-09T09:17:43;4.65;;;2.72;;
30149;SDS011;16962;48.646;9.026;2022-11-09T09:20:30;2.42;;;1.60;;
30149;SDS011;16962;48.646;9.026;2022-11-09T09:23:20;4.10;;;2.20;;
30149;SDS011;16962;48.646;9.026;2022-11-09T09:26:10;7.72;;;2.00;;
30149;SDS011;16962;48.646;9.026;2022-11-09T09:28:57;2.17;;;1.98;;
30149;SDS011;16962;48.646;9.026;2022-11-09T09:31:45;4.55;;;2.13;;
30149;SDS011;16962;48.646;9.026;2022-11-09T09:34:33;2.88;;;2.55;;
30149;SDS011;16962;48.646;9.026;2022-11-09T09:37:20;5.43;;;2.58;;
30149;SDS011;16962;48.646;9.026;2022-11-09T09:40:11;2.72;;;1.88;;
30149;SDS011;16962;48.646;9.026;2022-11-09T09:46:03;2.85;;;1.90;;
30149;SDS011;16962;48.646;9.026;2022-11-09T09:48:58;2.25;;;1.90;;
30149;SDS011;16962;48.646;9.026;2022-11-09T09:52:22;5.55;;;2.45;;
30149;SDS011;16962;48.646;9.026;2022-11-09T10:01:20;7.03;;;3.30;;
30149;SDS011;16962;48.646;9.026;2022-11-09T10:04:16;3.83;;;2.40;;
30149;SDS011;16962;48.646;9.026;2022-11-09T10:25:38;5.50;;;2.47;;
30149;SDS011;16962;48.646;9.026;2022-11-09T10:28:54;3.78;;;2.28;;
30149;SDS011;16962;48.646;9.026;2022-11-09T10:32:18;2.67;;;1.70;;
30149;SDS011;16962;48.646;9.026;2022-11-09T10:38:00;4.00;;;2.35;;
30149;SDS011;16962;48.646;9.026;2022-11-09T10:40:51;5.30;;;2.40;;
30149;SDS011;16962;48.646;9.026;2022-11-09T10:43:46;4.20;;;2.28;;
30149;SDS011;16962;48.646;9.026;2022-11-09T10:47:21;6.03;;;2.70;;
30149;SDS011;16962;48.646;9.026;2022-11-09T10:50:50;8.02;;;2.90;;
30149;SDS011;16962;48.646;9.026;2022-11-09T10:53:23;6.15;;;2.40;;
30149;SDS011;16962;48.646;9.026;2022-11-09T10:56:16;5.72;;;2.60;;
30149;SDS011;16962;48.646;9.026;2022-11-09T10:59:33;5.70;;;2.33;;
30149;SDS011;16962;48.646;9.026;2022-11-09T11:08:10;6.43;;;2.55;;
30149;SDS011;16962;48.646;9.026;2022-11-09T11:17:36;4.50;;;2.38;;
30149;SDS011;16962;48.646;9.026;2022-11-09T11:20:33;2.63;;;2.38;;
30149;SDS011;16962;48.646;9.026;2022-11-09T11:23:23;3.33;;;2.42;;
30149;SDS011;16962;48.646;9.026;2022-11-09T11:29:08;2.85;;;2.40;;
30149;SDS011;16962;48.646;9.026;2022-11-09T11:32:12;3.22;;;2.17;;
30149;SDS011;16962;48.646;9.026;2022-11-09T11:35:11;3.05;;;2.45;;
30149;SDS011;16962;48.646;9.026;2022-11-09T11:44:28;4.72;;;2.28;;
30149;SDS011;16962;48.646;9.026;2022-11-09T11:51:21;3.95;;;2.55;;
30149;SDS011;16962;48.646;9.026;2022-11-09T12:07:30;4.88;;;2.00;;
30149;SDS011;16962;48.646;9.026;2022-11-09T12:16:10;4.20;;;2.10;;
30149;SDS011;16962;48.646;9.026;2022-11-09T12:19:19;4.63;;;2.00;;
30149;SDS011;16962;48.646;9.026;2022-11-09T12:22:22;2.25;;;1.58;;
30149;SDS011;16962;48.646;9.026;2022-11-09T12:37:33;2.30;;;1.92;;
30149;SDS011;16962;48.646;9.026;2022-11-09T12:40:25;2.42;;;1.90;;
30149;SDS011;16962;48.646;9.026;2022-11-09T12:43:27;2.50;;;1.80;;
30149;SDS011;16962;48.646;9.026;2022-11-09T12:46:32;4.45;;;2.25;;
30149;SDS011;16962;48.646;9.026;2022-11-09T12:49:39;2.20;;;1.48;;
30149;SDS011;16962;48.646;9.026;2022-11-09T12:52:27;2.50;;;1.77;;
30149;SDS011;16962;48.646;9.026;2022-11-09T12:58:36;6.18;;;1.92;;
30149;SDS011;16962;48.646;9.026;2022-11-09T13:04:15;3.10;;;1.58;;
30149;SDS011;16962;48.646;9.026;2022-11-09T13:07:15;3.15;;;2.20;;
30149;SDS011;16962;48.646;9.026;2022-11-09T13:10:20;3.17;;;1.60;;
30149;SDS011;16962;48.646;9.026;2022-11-09T13:16:11;4.88;;;2.00;;
30149;SDS011;16962;48.646;9.026;2022-11-09T13:28:40;3.35;;;1.98;;
30149;SDS011;16962;48.646;9.026;2022-11-09T13:32:30;2.70;;;2.03;;
30149;SDS011;16962;48.646;9.026;2022-11-09T13:34:52;2.53;;;2.20;;
30149;SDS011;16962;48.646;9.026;2022-11-09T13:46:42;3.00;;;2.50;;
30149;SDS011;16962;48.646;9.026;2022-11-09T13:55:49;4.03;;;2.50;;
30149;SDS011;16962;48.646;9.026;2022-11-09T13:58:41;5.40;;;2.55;;
30149;SDS011;16962;48.646;9.026;2022-11-09T14:01:44;3.50;;;2.35;;
30149;SDS011;16962;48.646;9.026;2022-11-09T14:08:42;7.22;;;2.70;;
30149;SDS011;16962;48.646;9.026;2022-11-09T14:18:21;4.13;;;2.58;;
30149;SDS011;16962;48.646;9.026;2022-11-09T14:21:58;5.95;;;2.72;;
30149;SDS011;16962;48.646;9.026;2022-11-09T14:24:54;4.28;;;3.05;;
30149;SDS011;16962;48.646;9.026;2022-11-09T14:28:27;4.95;;;3.40;;
30149;SDS011;16962;48.646;9.026;2022-11-09T14:32:15;6.70;;;4.05;;
30149;SDS011;16962;48.646;9.026;2022-11-09T14:35:32;6.53;;;4.13;;
30149;SDS011;16962;48.646;9.026;2022-11-09T14:39:17;7.18;;;4.25;;
30149;SDS011;16962;48.646;9.026;2022-11-09T14:46:27;7.45;;;4.15;;
30149;SDS011;16962;48.646;9.026;2022-11-09T14:49:17;7.70;;;5.32;;
30149;SDS011;16962;48.646;9.026;2022-11-09T14:52:19;7.60;;;5.05;;
30149;SDS011;16962;48.646;9.026;2022-11-09T14:55:23;7.35;;;3.80;;
30149;SDS011;16962;48.646;9.026;2022-11-09T14:58:11;9.63;;;5.10;;
30149;SDS011;16962;48.646;9.026;2022-11-09T15:01:34;10.43;;;5.03;;
30149;SDS011;16962;48.646;9.026;2022-11-09T15:04:59;9.82;;;5.93;;
30149;SDS011;16962;48.646;9.026;2022-11-09T15:07:51;12.57;;;6.50;;
30149;SDS011;16962;48.646;9.026;2022-11-09T15:10:49;11.93;;;6.20;;
30149;SDS011;16962;48.646;9.026;2022-11-09T15:13:51;9.40;;;5.22;;
30149;SDS011;16962;48.646;9.026;2022-11-09T15:16:42;8.25;;;4.90;;
30149;SDS011;16962;48.646;9.026;2022-11-09T15:19:38;12.00;;;4.82;;
30149;SDS011;16962;48.646;9.026;2022-11-09T15:28:45;11.68;;;5.40;;
30149;SDS011;16962;48.646;9.026;2022-11-09T15:31:55;7.82;;;5.03;;
30149;SDS011;16962;48.646;9.026;2022-11-09T15:35:12;11.55;;;6.78;;
30149;SDS011;16962;48.646;9.026;2022-11-09T15:38:25;9.85;;;6.18;;
30149;SDS011;16962;48.646;9.026;2022-11-09T15:41:26;6.90;;;4.80;;
30149;SDS011;16962;48.646;9.026;2022-11-09T15:44:16;10.43;;;6.32;;
30149;SDS011;16962;48.646;9.026;2022-11-09T15:47:21;7.22;;;6.03;;
30149;SDS011;16962;48.646;9.026;2022-11-09T15:50:18;6.55;;;5.25;;
30149;SDS011;16962;48.646;9.026;2022-11-09T15:53:09;9.80;;;4.50;;
30149;SDS011;16962;48.646;9.026;2022-11-09T15:56:00;6.07;;;4.78;;
30149;SDS011;16962;48.646;9.026;2022-11-09T16:03:10;6.45;;;4.75;;
30149;SDS011;16962;48.646;9.026;2022-11-09T16:05:58;8.52;;;5.00;;
30149;SDS011;16962;48.646;9.026;2022-11-09T16:08:49;7.38;;;4.13;;
30149;SDS011;16962;48.646;9.026;2022-11-09T16:11:49;7.05;;;4.57;;
30149;SDS011;16962;48.646;9.026;2022-11-09T16:14:46;15.98;;;8.10;;
30149;SDS011;16962;48.646;9.026;2022-11-09T16:17:35;8.63;;;5.00;;
30149;SDS011;16962;48.646;9.026;2022-11-09T16:20:26;11.00;;;6.57;;
30149;SDS011;16962;48.646;9.026;2022-11-09T16:23:14;10.98;;;7.25;;
30149;SDS011;16962;48.646;9.026;2022-11-09T16:26:08;11.50;;;6.40;;
30149;SDS011;16962;48.646;9.026;2022-11-09T16:29:00;12.50;;;6.15;;
30149;SDS011;16962;48.646;9.026;2022-11-09T16:31:53;11.27;;;6.13;;
30149;SDS011;16962;48.646;9.026;2022-11-09T16:34:43;10.35;;;6.10;;
30149;SDS011;16962;48.646;9.026;2022-11-09T16:37:56;15.88;;;7.55;;
30149;SDS011;16962;48.646;9.026;2022-11-09T16:40:45;7.55;;;6.75;;
30149;SDS011;16962;48.646;9.026;2022-11-09T16:43:36;14.73;;;10.23;;
30149;SDS011;16962;48.646;9.026;2022-11-09T16:46:25;16.83;;;10.35;;
30149;SDS011;16962;48.646;9.026;2022-11-09T16:49:14;15.82;;;10.95;;
30149;SDS011;16962;48.646;9.026;2022-11-09T16:52:02;15.95;;;9.60;;
30149;SDS011;16962;48.646;9.026;2022-11-09T16:54:52;12.55;;;10.23;;
30149;SDS011;16962;48.646;9.026;2022-11-09T16:57:46;12.27;;;9.63;;
30149;SDS011;16962;48.646;9.026;2022-11-09T17:00:36;10.98;;;7.05;;
30149;SDS011;16962;48.646;9.026;2022-11-09T17:03:43;8.80;;;6.90;;
30149;SDS011;16962;48.646;9.026;2022-11-09T17:06:34;13.23;;;7.32;;
30149;SDS011;16962;48.646;9.026;2022-11-09T17:09:22;10.60;;;6.32;;
30149;SDS011;16962;48.646;9.026;2022-11-09T17:12:10;12.20;;;7.60;;
30149;SDS011;16962;48.646;9.026;2022-11-09T17:14:57;9.30;;;7.43;;
30149;SDS011;16962;48.646;9.026;2022-11-09T17:17:47;7.65;;;6.70;;
30149;SDS011;16962;48.646;9.026;2022-11-09T17:20:47;14.05;;;8.07;;
30149;SDS011;16962;48.646;9.026;2022-11-09T17:23:47;10.90;;;8.18;;
30149;SDS011;16962;48.646;9.026;2022-11-09T17:26:35;9.57;;;7.90;;
30149;SDS011;16962;48.646;9.026;2022-11-09T17:29:23;10.30;;;7.78;;
30149;SDS011;16962;48.646;9.026;2022-11-09T17:32:11;8.75;;;7.38;;
30149;SDS011;16962;48.646;9.026;2022-11-09T17:35:01;7.97;;;7.03;;
30149;SDS011;16962;48.646;9.026;2022-11-09T17:37:50;7.72;;;6.15;;
30149;SDS011;16962;48.646;9.026;2022-11-09T17:40:40;8.00;;;5.13;;
30149;SDS011;16962;48.646;9.026;2022-11-09T17:43:28;7.22;;;4.45;;
30149;SDS011;16962;48.646;9.026;2022-11-09T17:46:18;8.82;;;5.60;;
30149;SDS011;16962;48.646;9.026;2022-11-09T17:49:09;10.95;;;7.75;;
30149;SDS011;16962;48.646;9.026;2022-11-09T17:51:59;9.93;;;6.50;;
30149;SDS011;16962;48.646;9.026;2022-11-09T17:54:49;8.48;;;6.45;;
30149;SDS011;16962;48.646;9.026;2022-11-09T17:57:46;9.93;;;7.57;;
30149;SDS011;16962;48.646;9.026;2022-11-09T18:00:34;9.23;;;7.07;;
30149;SDS011;16962;48.646;9.026;2022-11-09T18:03:22;8.98;;;7.32;;
30149;SDS011;16962;48.646;9.026;2022-11-09T18:06:11;8.10;;;7.28;;
30149;SDS011;16962;48.646;9.026;2022-11-09T18:09:01;11.57;;;8.07;;
30149;SDS011;16962;48.646;9.026;2022-11-09T18:12:09;13.10;;;9.25;;
30149;SDS011;16962;48.646;9.026;2022-11-09T18:14:57;9.55;;;5.80;;
30149;SDS011;16962;48.646;9.026;2022-11-09T18:17:45;7.47;;;6.40;;
30149;SDS011;16962;48.646;9.026;2022-11-09T18:20:52;11.15;;;8.60;;
30149;SDS011;16962;48.646;9.026;2022-11-09T18:23:41;12.20;;;9.43;;
30149;SDS011;16962;48.646;9.026;2022-11-09T18:26:40;14.02;;;9.38;;
30149;SDS011;16962;48.646;9.026;2022-11-09T18:29:42;14.90;;;10.85;;
30149;SDS011;16962;48.646;9.026;2022-11-09T18:32:30;16.35;;;10.43;;
30149;SDS011;16962;48.646;9.026;2022-11-09T18:38:44;24.10;;;13.90;;
30149;SDS011;16962;48.646;9.026;2022-11-09T18:44:44;22.10;;;12.32;;
30149;SDS011;16962;48.646;9.026;2022-11-09T18:47:41;12.57;;;8.10;;
30149;SDS011;16962;48.646;9.026;2022-11-09T18:50:47;8.32;;;6.57;;
30149;SDS011;16962;48.646;9.026;2022-11-09T18:54:16;14.63;;;10.27;;
30149;SDS011;16962;48.646;9.026;2022-11-09T18:57:06;13.68;;;8.02;;
30149;SDS011;16962;48.646;9.026;2022-11-09T18:59:58;9.07;;;7.00;;
30149;SDS011;16962;48.646;9.026;2022-11-09T19:02:49;16.65;;;10.45;;
30149;SDS011;16962;48.646;9.026;2022-11-09T19:05:39;9.70;;;8.02;;
30149;SDS011;16962;48.646;9.026;2022-11-09T19:12:20;11.40;;;8.23;;
30149;SDS011;16962;48.646;9.026;2022-11-09T19:15:52;10.93;;;8.18;;
30149;SDS011;16962;48.646;9.026;2022-11-09T19:22:56;11.70;;;7.72;;
30149;SDS011;16962;48.646;9.026;2022-11-09T19:25:46;12.02;;;9.50;;
30149;SDS011;16962;48.646;9.026;2022-11-09T19:28:34;14.70;;;10.18;;
30149;SDS011;16962;48.646;9.026;2022-11-09T19:31:22;13.82;;;10.32;;
30149;SDS011;16962;48.646;9.026;2022-11-09T19:34:12;11.77;;;9.10;;
30149;SDS011;16962;48.646;9.026;2022-11-09T19:37:05;11.98;;;9.27;;
30149;SDS011;16962;48.646;9.026;2022-11-09T19:39:59;16.98;;;10.20;;
30149;SDS011;16962;48.646;9.026;2022-11-09T19:42:53;24.70;;;11.23;;
30149;SDS011;16962;48.646;9.026;2022-11-09T19:45:41;12.02;;;6.88;;
30149;SDS011;16962;48.646;9.026;2022-11-09T19:48:29;11.88;;;7.47;;
30149;SDS011;16962;48.646;9.026;2022-11-09T19:51:34;10.05;;;6.90;;
30149;SDS011;16962;48.646;9.026;2022-11-09T19:54:24;5.30;;;4.68;;
30149;SDS011;16962;48.646;9.026;2022-11-09T19:57:22;6.43;;;5.47;;
30149;SDS011;16962;48.646;9.026;2022-11-09T20:03:40;6.40;;;4.87;;